createdAt,value
2022-11-15T00:01:44.067Z,78.59
2022-11-15T00:04:29.514Z,78.47
2022-11-15T00:07:33.227Z,78.51
2022-11-15T00:10:19.932Z,78.22
2022-11-15T00:13:09.497Z,78.07
2022-11-15T00:15:58.561Z,77.63
2022-11-15T00:18:49.277Z,77.90
2022-11-15T00:21:35.917Z,78.66
2022-11-15T00:24:21.037Z,79.20
2022-11-15T00:27:08.101Z,79.37
2022-11-15T00:29:54.367Z,79.52
2022-11-15T00:32:39.456Z,79.32
2022-11-15T00:35:24.802Z,79.32
2022-11-15T00:38:11.789Z,79.15
2022-11-15T00:40:57.141Z,78.74
2022-11-15T00:43:44.448Z,79.11
2022-11-15T00:46:29.648Z,79.03
2022-11-15T00:49:14.939Z,79.28
2022-11-15T00:52:00.495Z,78.64
2022-11-15T00:54:45.847Z,79.38
2022-11-15T00:57:30.994Z,79.76
2022-11-15T01:00:17.033Z,80.08
2022-11-15T01:03:02.622Z,79.49
2022-11-15T01:05:48.214Z,79.65
2022-11-15T01:08:34.434Z,80.24
2022-11-15T01:11:22.898Z,80.69
2022-11-15T01:14:08.168Z,80.80
2022-11-15T01:16:53.361Z,81.12
2022-11-15T01:19:38.471Z,81.78
2022-11-15T01:22:23.517Z,81.87
2022-11-15T01:25:08.729Z,82.38
2022-11-15T01:27:53.858Z,81.08
2022-11-15T01:30:39.414Z,81.00
2022-11-15T01:33:24.514Z,81.24
2022-11-15T01:36:13.883Z,81.07
2022-11-15T01:39:00.051Z,80.87
2022-11-15T01:41:45.182Z,81.41
2022-11-15T01:44:41.369Z,80.41
2022-11-15T01:47:34.415Z,81.07
2022-11-15T01:50:29.800Z,81.94
2022-11-15T01:53:16.798Z,82.84
2022-11-15T01:56:06.987Z,82.60
2022-11-15T01:58:56.274Z,83.18
2022-11-15T02:01:41.915Z,82.90
2022-11-15T02:04:30.442Z,83.18
2022-11-15T02:07:21.045Z,83.63
2022-11-15T02:10:18.817Z,83.88
2022-11-15T02:13:04.746Z,84.17
2022-11-15T02:16:13.317Z,83.66
2022-11-15T02:19:10.348Z,83.46
2022-11-15T02:22:33.448Z,83.51
2022-11-15T02:25:47.807Z,83.61
2022-11-15T02:29:00.227Z,83.93
2022-11-15T02:32:04.063Z,83.93
2022-11-15T02:35:02.097Z,83.91
2022-11-15T02:37:59.584Z,84.22
2022-11-15T02:41:02.691Z,83.58
2022-11-15T02:43:57.725Z,83.86
2022-11-15T02:47:07.926Z,83.93
2022-11-15T02:50:02.045Z,83.90
2022-11-15T02:52:49.499Z,84.58
2022-11-15T02:55:37.554Z,84.34
2022-11-15T02:58:49.682Z,84.39
2022-11-15T03:01:59.078Z,84.40
2022-11-15T03:05:05.706Z,84.66
2022-11-15T03:08:35.333Z,84.51
2022-11-15T03:11:22.773Z,84.82
2022-11-15T03:14:14.383Z,85.66
2022-11-15T03:17:12.119Z,85.45
2022-11-15T03:20:02.333Z,85.63
2022-11-15T03:22:50.427Z,86.08
2022-11-15T03:25:41.502Z,86.23
2022-11-15T03:28:29.261Z,85.85
2022-11-15T03:31:36.686Z,85.23
2022-11-15T03:34:39.046Z,85.24
2022-11-15T03:37:30.823Z,84.99
2022-11-15T03:40:18.159Z,85.67
2022-11-15T03:43:08.036Z,85.06
2022-11-15T03:46:15.657Z,85.70
2022-11-15T03:49:13.542Z,85.83
2022-11-15T03:51:59.817Z,86.17
2022-11-15T03:54:50.630Z,86.28
2022-11-15T03:57:36.137Z,85.86
2022-11-15T04:00:21.334Z,85.43
2022-11-15T04:03:06.761Z,85.32
2022-11-15T04:05:52.349Z,85.18
2022-11-15T04:08:37.458Z,85.38
2022-11-15T04:11:22.985Z,85.18
2022-11-15T04:14:08.217Z,85.60
2022-11-15T04:16:53.330Z,84.83
2022-11-15T04:19:57.171Z,84.93
2022-11-15T04:23:00.880Z,85.21
2022-11-15T04:25:47.661Z,85.54
2022-11-15T04:28:33.048Z,85.98
2022-11-15T04:31:18.026Z,85.53
2022-11-15T04:34:03.707Z,85.98
2022-11-15T04:37:07.629Z,85.86
2022-11-15T04:39:53.192Z,85.45
2022-11-15T04:42:38.278Z,85.66
2022-11-15T04:45:23.921Z,85.75
2022-11-15T04:48:09.399Z,85.31
2022-11-15T04:50:54.639Z,84.66
2022-11-15T04:53:40.192Z,85.01
2022-11-15T04:56:25.089Z,84.97
2022-11-15T04:59:10.714Z,85.13
2022-11-15T05:01:55.587Z,85.37
2022-11-15T05:04:40.987Z,84.64
2022-11-15T05:07:26.630Z,84.40
2022-11-15T05:10:12.100Z,85.02
2022-11-15T05:12:57.520Z,84.10
2022-11-15T05:15:42.782Z,84.52
2022-11-15T05:18:28.141Z,85.14
2022-11-15T05:21:15.941Z,84.52
2022-11-15T05:24:01.942Z,84.35
2022-11-15T05:26:47.431Z,84.92
2022-11-15T05:29:32.606Z,84.74
2022-11-15T05:32:18.863Z,83.00
2022-11-15T05:35:07.984Z,83.51
2022-11-15T05:37:53.318Z,83.53
2022-11-15T05:40:39.078Z,84.32
2022-11-15T05:43:25.098Z,84.15
2022-11-15T05:46:10.998Z,83.05
2022-11-15T05:48:57.779Z,83.59
2022-11-15T05:51:47.461Z,83.69
2022-11-15T05:54:33.782Z,83.79
2022-11-15T05:57:19.366Z,84.15
2022-11-15T06:00:05.891Z,83.25
2022-11-15T06:02:50.869Z,82.78
2022-11-15T06:05:35.964Z,83.13
2022-11-15T06:08:21.137Z,83.29
2022-11-15T06:11:07.821Z,83.88
2022-11-15T06:13:53.288Z,83.98
2022-11-15T06:16:38.631Z,83.65
2022-11-15T06:19:23.588Z,83.39
2022-11-15T06:22:10.446Z,83.38
2022-11-15T06:24:58.268Z,83.17
2022-11-15T06:27:52.367Z,83.17
2022-11-15T06:30:37.482Z,81.98
2022-11-15T06:33:22.553Z,82.49
2022-11-15T06:36:17.091Z,82.52
2022-11-15T06:39:06.896Z,82.48
2022-11-15T06:41:52.463Z,82.71
2022-11-15T06:44:37.667Z,82.05
2022-11-15T06:47:22.800Z,82.20
2022-11-15T06:50:08.506Z,82.35
2022-11-15T06:52:53.693Z,82.79
2022-11-15T06:55:38.799Z,82.73
2022-11-15T06:58:24.421Z,82.89
2022-11-15T07:01:12.679Z,83.19
2022-11-15T07:03:58.017Z,83.42
2022-11-15T07:06:43.468Z,83.33
2022-11-15T07:09:28.751Z,83.59
2022-11-15T07:12:14.026Z,83.57
2022-11-15T07:14:59.016Z,83.10
2022-11-15T07:17:44.524Z,83.19
2022-11-15T07:20:29.471Z,83.61
2022-11-15T07:23:14.543Z,83.39
2022-11-15T07:26:00.845Z,83.71
2022-11-15T07:28:46.283Z,83.70
2022-11-15T07:31:31.789Z,83.70
2022-11-15T07:34:16.882Z,83.51
2022-11-15T07:37:02.444Z,83.59
2022-11-15T07:39:47.571Z,83.58
2022-11-15T07:42:51.495Z,83.45
2022-11-15T07:45:43.761Z,83.76
2022-11-15T07:48:42.205Z,84.27
2022-11-15T07:51:28.394Z,84.58
2022-11-15T07:54:13.733Z,84.97
2022-11-15T07:57:02.565Z,85.56
2022-11-15T07:59:52.216Z,85.89
2022-11-15T08:02:37.334Z,85.61
2022-11-15T08:05:22.736Z,85.89
2022-11-15T08:08:09.331Z,86.03
2022-11-15T08:10:54.833Z,86.46
2022-11-15T08:13:40.288Z,85.17
2022-11-15T08:16:25.640Z,85.77
2022-11-15T08:19:10.717Z,85.80
2022-11-15T08:21:56.299Z,85.44
2022-11-15T08:24:41.555Z,85.85
2022-11-15T08:27:26.649Z,85.22
2022-11-15T08:30:13.066Z,84.80
2022-11-15T08:32:59.943Z,84.84
2022-11-15T08:35:45.451Z,84.78
2022-11-15T08:38:31.695Z,85.29
2022-11-15T08:41:29.203Z,85.43
2022-11-15T08:44:14.339Z,85.52
2022-11-15T08:46:59.809Z,85.39
2022-11-15T08:49:45.248Z,85.31
2022-11-15T08:52:30.828Z,85.63
2022-11-15T08:55:17.736Z,85.90
2022-11-15T08:58:03.240Z,85.97
2022-11-15T09:00:48.577Z,86.17
2022-11-15T09:03:33.779Z,85.71
2022-11-15T09:06:19.291Z,86.06
2022-11-15T09:09:04.910Z,85.90
2022-11-15T09:11:51.733Z,85.84
2022-11-15T09:14:37.618Z,85.68
2022-11-15T09:17:24.926Z,85.61
2022-11-15T09:20:11.172Z,86.05
2022-11-15T09:23:00.794Z,86.39
2022-11-15T09:25:46.428Z,86.61
2022-11-15T09:28:33.958Z,87.09
2022-11-15T09:31:22.178Z,87.04
2022-11-15T09:34:07.860Z,86.45
2022-11-15T09:36:53.203Z,86.68
2022-11-15T09:39:38.957Z,85.94
2022-11-15T09:42:56.435Z,86.10
2022-11-15T09:45:51.398Z,85.77
2022-11-15T09:48:58.926Z,86.76
2022-11-15T09:51:47.683Z,86.45
2022-11-15T09:54:53.978Z,86.57
2022-11-15T09:58:01.743Z,86.42
2022-11-15T10:00:46.533Z,86.34
2022-11-15T10:03:16.193Z,86.46
2022-11-15T10:05:46.579Z,86.20
2022-11-15T10:08:28.844Z,86.68
2022-11-15T10:11:35.517Z,86.36
2022-11-15T10:13:53.662Z,86.84
2022-11-15T10:16:48.121Z,87.41
2022-11-15T10:19:25.230Z,87.48
2022-11-15T10:22:14.976Z,87.28
2022-11-15T10:24:45.233Z,86.95
2022-11-15T10:27:13.553Z,86.53
2022-11-15T10:29:51.190Z,86.40
2022-11-15T10:32:19.999Z,86.58
2022-11-15T10:34:48.064Z,87.08
2022-11-15T10:37:14.976Z,86.73
2022-11-15T10:39:41.828Z,86.78
2022-11-15T10:42:29.317Z,86.59
2022-11-15T10:44:56.174Z,86.40
2022-11-15T10:47:29.191Z,86.05
2022-11-15T10:50:05.501Z,85.85
2022-11-15T10:52:35.907Z,86.74
2022-11-15T10:55:17.786Z,86.77
2022-11-15T10:57:51.506Z,87.09
2022-11-15T11:00:21.070Z,86.91
2022-11-15T11:02:56.540Z,86.58
2022-11-15T11:05:38.142Z,87.11
2022-11-15T11:08:11.247Z,85.99
2022-11-15T11:10:51.770Z,86.85
2022-11-15T11:13:31.448Z,87.37
2022-11-15T11:16:01.101Z,87.11
2022-11-15T11:18:53.166Z,86.80
2022-11-15T11:21:55.195Z,87.21
2022-11-15T11:24:45.056Z,87.15
2022-11-15T11:27:31.542Z,87.15
2022-11-15T11:30:33.055Z,87.74
2022-11-15T11:33:17.185Z,87.62
2022-11-15T11:36:04.431Z,88.10
2022-11-15T11:38:59.162Z,88.48
2022-11-15T11:41:54.210Z,88.07
2022-11-15T11:44:26.482Z,87.86
2022-11-15T11:46:55.988Z,87.59
2022-11-15T11:49:29.370Z,87.57
2022-11-15T11:52:09.027Z,87.75
2022-11-15T11:54:47.988Z,88.62
2022-11-15T11:57:28.102Z,88.06
2022-11-15T12:00:03.351Z,88.11
2022-11-15T12:02:44.409Z,88.17
2022-11-15T12:05:18.975Z,87.85
2022-11-15T12:07:47.984Z,88.00
2022-11-15T12:10:30.274Z,87.78
2022-11-15T12:13:05.529Z,88.28
2022-11-15T12:15:46.591Z,88.59
2022-11-15T12:18:16.371Z,87.08
2022-11-15T12:20:54.271Z,87.55
2022-11-15T12:23:27.601Z,86.70
2022-11-15T12:26:00.600Z,86.98
2022-11-15T12:29:06.365Z,87.68
2022-11-15T12:31:45.772Z,86.84
2022-11-15T12:34:21.563Z,87.26
2022-11-15T12:36:52.002Z,87.33
2022-11-15T12:39:19.082Z,87.94
2022-11-15T12:42:06.054Z,87.27
2022-11-15T12:44:32.639Z,87.01
2022-11-15T12:46:59.271Z,87.46
2022-11-15T12:49:28.995Z,87.79
2022-11-15T12:51:58.582Z,86.96
2022-11-15T12:54:25.378Z,87.30
2022-11-15T12:57:04.330Z,86.79
2022-11-15T12:59:56.039Z,87.21
2022-11-15T13:02:25.694Z,86.37
2022-11-15T13:04:54.774Z,86.84
2022-11-15T13:07:36.664Z,86.54
2022-11-15T13:10:27.922Z,87.42
2022-11-15T13:12:57.008Z,87.26
2022-11-15T13:15:53.904Z,87.05
2022-11-15T13:18:38.735Z,87.33
2022-11-15T13:21:39.486Z,86.99
2022-11-15T13:24:13.406Z,86.24
2022-11-15T13:26:43.180Z,86.69
2022-11-15T13:29:18.053Z,87.24
2022-11-15T13:31:45.728Z,86.89
2022-11-15T13:34:49.485Z,87.25
2022-11-15T13:37:29.711Z,87.11
2022-11-15T13:40:24.732Z,86.90
2022-11-15T13:42:52.269Z,86.83
2022-11-15T13:45:20.371Z,86.85
2022-11-15T13:47:53.036Z,87.00
2022-11-15T13:50:22.888Z,86.76
2022-11-15T13:52:49.968Z,86.89
2022-11-15T13:55:20.501Z,86.94
2022-11-15T13:57:52.420Z,86.41
2022-11-15T14:00:36.090Z,86.02
2022-11-15T14:03:22.107Z,87.04
2022-11-15T14:06:13.279Z,87.70
2022-11-15T14:08:42.024Z,86.93
2022-11-15T14:11:09.030Z,86.98
2022-11-15T14:13:36.220Z,86.94
2022-11-15T14:16:33.165Z,86.58
2022-11-15T14:19:00.022Z,87.13
2022-11-15T14:21:26.793Z,87.22
2022-11-15T14:23:53.438Z,86.61
2022-11-15T14:26:34.785Z,87.03
2022-11-15T14:29:27.376Z,86.34
2022-11-15T14:31:55.584Z,87.26
2022-11-15T14:34:23.304Z,87.30
2022-11-15T14:36:50.013Z,86.88
2022-11-15T14:39:17.052Z,87.23
2022-11-15T14:41:44.591Z,87.14
2022-11-15T14:44:12.180Z,87.41
2022-11-15T14:46:38.818Z,86.79
2022-11-15T14:49:05.902Z,87.16
2022-11-15T14:51:33.932Z,87.07
2022-11-15T14:54:00.971Z,86.34
2022-11-15T14:56:27.804Z,86.20
2022-11-15T14:58:56.268Z,87.33
2022-11-15T15:01:26.213Z,86.02
2022-11-15T15:03:57.896Z,85.87
2022-11-15T15:06:25.219Z,86.13
2022-11-15T15:08:52.167Z,85.93
2022-11-15T15:11:24.365Z,86.19
2022-11-15T15:13:51.850Z,86.67
2022-11-15T15:16:18.847Z,86.23
2022-11-15T15:18:45.459Z,86.10
2022-11-15T15:21:24.039Z,85.87
2022-11-15T15:23:51.470Z,85.75
2022-11-15T15:26:18.630Z,85.15
2022-11-15T15:28:45.393Z,85.81
2022-11-15T15:31:12.382Z,85.52
2022-11-15T15:33:39.033Z,86.18
2022-11-15T15:36:06.098Z,85.63
2022-11-15T15:38:33.325Z,85.28
2022-11-15T15:41:02.931Z,85.07
2022-11-15T15:43:29.778Z,84.77
2022-11-15T15:45:56.406Z,85.24
2022-11-15T15:48:23.137Z,85.55
2022-11-15T15:50:50.303Z,85.68
2022-11-15T15:53:18.299Z,85.04
2022-11-15T15:55:45.093Z,85.42
2022-11-15T15:58:11.834Z,84.84
2022-11-15T16:00:39.006Z,85.22
2022-11-15T16:03:05.686Z,84.44
2022-11-15T16:05:32.644Z,83.25
2022-11-15T16:07:59.685Z,84.09
2022-11-15T16:10:30.243Z,84.27
2022-11-15T16:12:58.622Z,83.76
2022-11-15T16:15:28.028Z,83.36
2022-11-15T16:17:57.011Z,82.25
2022-11-15T16:20:40.550Z,83.47
2022-11-15T16:23:10.695Z,83.57
2022-11-15T16:25:49.512Z,83.82
2022-11-15T16:28:31.667Z,84.20
2022-11-15T16:31:10.137Z,83.86
2022-11-15T16:33:37.708Z,83.57
2022-11-15T16:36:19.219Z,82.81
2022-11-15T16:38:46.048Z,82.17
2022-11-15T16:41:12.742Z,82.30
2022-11-15T16:43:39.590Z,82.03
2022-11-15T16:46:21.659Z,82.04
2022-11-15T16:48:49.288Z,82.63
2022-11-15T16:51:18.784Z,82.29
2022-11-15T16:53:51.342Z,81.89
2022-11-15T16:56:23.941Z,82.69
2022-11-15T16:58:50.912Z,82.84
2022-11-15T17:01:21.269Z,82.69
2022-11-15T17:03:48.110Z,82.49
2022-11-15T17:06:15.500Z,81.56
2022-11-15T17:08:42.481Z,81.13
2022-11-15T17:11:09.783Z,82.24
2022-11-15T17:13:36.558Z,81.86
2022-11-15T17:16:08.768Z,82.75
2022-11-15T17:18:36.388Z,82.36
2022-11-15T17:21:14.162Z,81.60
2022-11-15T17:23:41.319Z,81.98
2022-11-15T17:26:29.027Z,81.87
2022-11-15T17:28:57.134Z,82.40
2022-11-15T17:31:25.401Z,82.26
2022-11-15T17:33:52.270Z,83.03
2022-11-15T17:36:19.319Z,82.54
2022-11-15T17:38:50.410Z,82.40
2022-11-15T17:41:17.215Z,82.68
2022-11-15T17:43:44.313Z,82.20
2022-11-15T17:46:14.899Z,81.62
2022-11-15T17:48:42.011Z,82.70
2022-11-15T17:51:11.769Z,81.93
2022-11-15T17:53:44.023Z,82.38
2022-11-15T17:56:16.363Z,81.94
2022-11-15T17:59:00.764Z,82.93
2022-11-15T18:01:30.057Z,83.25
2022-11-15T18:04:00.109Z,82.55
2022-11-15T18:06:30.456Z,83.39
2022-11-15T18:08:57.296Z,82.91
2022-11-15T18:11:26.833Z,82.76
2022-11-15T18:13:56.994Z,83.18
2022-11-15T18:16:26.100Z,82.04
2022-11-15T18:18:55.915Z,82.29
2022-11-15T18:21:30.831Z,82.67
2022-11-15T18:24:00.049Z,82.25
2022-11-15T18:26:28.513Z,81.79
2022-11-15T18:28:57.299Z,81.20
2022-11-15T18:31:27.196Z,80.26
2022-11-15T18:33:54.391Z,80.95
2022-11-15T18:36:23.963Z,81.73
2022-11-15T18:39:05.056Z,81.88
2022-11-15T18:41:35.063Z,82.31
2022-11-15T18:44:05.493Z,81.87
2022-11-15T18:46:32.238Z,82.53
2022-11-15T18:49:01.372Z,81.73
2022-11-15T18:51:30.289Z,81.92
2022-11-15T18:53:59.972Z,82.23
2022-11-15T18:56:28.351Z,82.45
2022-11-15T18:58:57.549Z,82.51
2022-11-15T19:01:32.622Z,82.03
2022-11-15T19:04:04.525Z,82.76
2022-11-15T19:06:31.426Z,82.63
2022-11-15T19:08:59.406Z,82.57
2022-11-15T19:11:35.769Z,82.40
2022-11-15T19:14:10.868Z,82.79
2022-11-15T19:16:40.031Z,82.25
2022-11-15T19:19:12.054Z,82.01
2022-11-15T19:21:39.336Z,82.14
2022-11-15T19:24:06.778Z,82.25
2022-11-15T19:26:33.582Z,81.36
2022-11-15T19:29:01.888Z,82.00
2022-11-15T19:31:31.715Z,81.51
2022-11-15T19:34:00.169Z,81.22
2022-11-15T19:36:32.802Z,81.82
2022-11-15T19:39:05.690Z,81.56
2022-11-15T19:41:52.137Z,81.73
2022-11-15T19:44:19.717Z,81.64
2022-11-15T19:46:46.496Z,81.36
2022-11-15T19:49:13.440Z,81.49
2022-11-15T19:51:42.680Z,81.46
2022-11-15T19:54:10.589Z,81.59
2022-11-15T19:56:37.901Z,81.62
2022-11-15T19:59:05.311Z,81.62
2022-11-15T20:01:36.327Z,81.41
2022-11-15T20:04:03.405Z,81.73
2022-11-15T20:06:39.790Z,82.12
2022-11-15T20:09:06.579Z,82.34
2022-11-15T20:11:34.345Z,81.45
2022-11-15T20:14:04.999Z,81.47
2022-11-15T20:16:31.830Z,81.34
2022-11-15T20:18:58.652Z,81.63
2022-11-15T20:21:25.377Z,81.21
2022-11-15T20:23:52.625Z,81.25
2022-11-15T20:26:20.510Z,80.90
2022-11-15T20:28:48.251Z,81.08
2022-11-15T20:31:26.353Z,80.86
2022-11-15T20:33:53.011Z,81.13
2022-11-15T20:36:19.739Z,81.08
2022-11-15T20:38:46.462Z,81.51
2022-11-15T20:41:14.540Z,81.02
2022-11-15T20:43:43.561Z,81.19
2022-11-15T20:46:12.172Z,81.27
2022-11-15T20:48:39.108Z,81.33
2022-11-15T20:51:11.355Z,81.25
2022-11-15T20:53:41.853Z,81.83
2022-11-15T20:56:13.988Z,81.39
2022-11-15T20:58:42.266Z,80.92
2022-11-15T21:01:11.922Z,81.27
2022-11-15T21:03:38.721Z,81.08
2022-11-15T21:06:05.816Z,80.92
2022-11-15T21:08:54.291Z,81.38
2022-11-15T21:11:39.827Z,80.70
2022-11-15T21:14:09.507Z,81.05
2022-11-15T21:16:37.401Z,81.26
2022-11-15T21:19:05.717Z,80.88
2022-11-15T21:21:32.609Z,81.00
2022-11-15T21:23:59.313Z,81.04
2022-11-15T21:26:26.804Z,80.70
2022-11-15T21:28:53.644Z,81.47
2022-11-15T21:31:20.446Z,80.99
2022-11-15T21:33:47.181Z,80.33
2022-11-15T21:36:14.313Z,80.60
2022-11-15T21:38:41.224Z,80.87
2022-11-15T21:41:08.045Z,81.29
2022-11-15T21:43:34.804Z,80.58
2022-11-15T21:46:04.029Z,80.85
2022-11-15T21:48:33.110Z,81.38
2022-11-15T21:51:08.225Z,81.38
2022-11-15T21:53:35.283Z,80.72
2022-11-15T21:56:03.234Z,81.18
2022-11-15T21:58:31.238Z,81.40
2022-11-15T22:01:17.345Z,81.35
2022-11-15T22:03:44.246Z,80.97
2022-11-15T22:06:17.210Z,81.32
2022-11-15T22:08:46.176Z,80.72
2022-11-15T22:11:13.601Z,80.99
2022-11-15T22:13:40.329Z,81.01
2022-11-15T22:16:08.692Z,81.06
2022-11-15T22:18:36.606Z,81.11
2022-11-15T22:21:06.167Z,80.54
2022-11-15T22:23:33.934Z,80.42
2022-11-15T22:26:01.384Z,80.65
2022-11-15T22:28:28.354Z,80.91
2022-11-15T22:30:55.472Z,80.40
2022-11-15T22:33:24.649Z,80.29
2022-11-15T22:35:51.624Z,79.71
2022-11-15T22:38:18.692Z,79.85
2022-11-15T22:40:46.823Z,80.09
2022-11-15T22:43:15.827Z,80.03
2022-11-15T22:45:51.492Z,80.11
2022-11-15T22:48:20.715Z,79.70
2022-11-15T22:50:47.691Z,80.13
2022-11-15T22:53:14.444Z,80.62
2022-11-15T22:55:41.913Z,80.83
2022-11-15T22:58:09.132Z,80.50
2022-11-15T23:00:37.362Z,80.22
2022-11-15T23:03:04.401Z,79.76
2022-11-15T23:05:31.245Z,79.87
2022-11-15T23:07:58.014Z,79.27
2022-11-15T23:10:43.547Z,79.52
2022-11-15T23:13:16.224Z,79.60
2022-11-15T23:16:07.440Z,80.42
2022-11-15T23:18:36.144Z,79.45
2022-11-15T23:21:17.883Z,79.57
2022-11-15T23:23:44.629Z,79.40
2022-11-15T23:26:12.069Z,80.00
2022-11-15T23:28:38.846Z,79.79
2022-11-15T23:31:25.650Z,79.25
2022-11-15T23:33:58.823Z,79.96
2022-11-15T23:36:27.246Z,79.46
2022-11-15T23:38:54.469Z,79.62
2022-11-15T23:41:23.811Z,79.00
2022-11-15T23:43:51.441Z,78.95
2022-11-15T23:46:18.737Z,79.21
2022-11-15T23:48:45.526Z,79.43
2022-11-15T23:51:12.367Z,79.44
2022-11-15T23:53:39.418Z,79.68
2022-11-15T23:56:10.504Z,79.46
2022-11-15T23:58:37.734Z,79.79
